createdAt,value
2023-02-04T00:00:30.637Z,5.08
2023-02-04T00:03:18.856Z,5.27
2023-02-04T00:05:46.918Z,5.28
2023-02-04T00:08:15.073Z,5.24
2023-02-04T00:10:43.073Z,4.88
2023-02-04T00:13:11.124Z,4.79
2023-02-04T00:15:39.031Z,4.78
2023-02-04T00:18:07.344Z,4.93
2023-02-04T00:20:35.598Z,5.09
2023-02-04T00:23:03.571Z,5.12
2023-02-04T00:25:31.633Z,5.32
2023-02-04T00:27:59.734Z,5.36
2023-02-04T00:30:28.540Z,5.34
2023-02-04T00:32:57.178Z,5.22
2023-02-04T00:35:25.125Z,5.20
2023-02-04T00:37:54.250Z,5.26
2023-02-04T00:40:22.253Z,5.23
2023-02-04T00:42:50.480Z,5.24
2023-02-04T00:45:18.480Z,5.28
2023-02-04T00:47:46.735Z,5.32
2023-02-04T00:50:14.940Z,5.35
2023-02-04T00:52:43.180Z,5.44
2023-02-04T00:55:12.368Z,5.48
2023-02-04T00:57:40.341Z,5.31
2023-02-04T01:00:08.792Z,5.34
2023-02-04T01:02:36.920Z,5.43
2023-02-04T01:05:04.947Z,5.23
2023-02-04T01:07:33.052Z,4.99
2023-02-04T01:10:01.008Z,4.78
2023-02-04T01:12:29.075Z,4.72
2023-02-04T01:14:57.341Z,4.84
2023-02-04T01:17:26.146Z,5.03
2023-02-04T01:19:54.824Z,5.21
2023-02-04T01:22:23.095Z,5.33
2023-02-04T01:24:51.114Z,5.34
2023-02-04T01:27:37.748Z,5.34
2023-02-04T01:30:06.460Z,5.28
2023-02-04T01:32:35.074Z,5.29
2023-02-04T01:35:03.524Z,5.23
2023-02-04T01:37:31.496Z,5.20
2023-02-04T01:39:59.656Z,5.10
2023-02-04T01:42:27.779Z,5.02
2023-02-04T01:44:55.904Z,4.74
2023-02-04T01:47:25.681Z,4.89
2023-02-04T01:49:54.805Z,5.14
2023-02-04T01:52:23.459Z,5.29
2023-02-04T01:54:53.324Z,5.21
2023-02-04T01:57:21.374Z,4.98
2023-02-04T01:59:49.654Z,4.85
2023-02-04T02:02:36.483Z,4.68
2023-02-04T02:05:05.345Z,4.41
2023-02-04T02:07:33.373Z,4.16
2023-02-04T02:10:02.008Z,4.26
2023-02-04T02:12:30.487Z,4.28
2023-02-04T02:14:59.408Z,4.16
2023-02-04T02:17:27.481Z,4.23
2023-02-04T02:19:55.820Z,4.56
2023-02-04T02:22:33.398Z,5.18
2023-02-04T02:25:01.393Z,5.27
2023-02-04T02:27:29.448Z,5.34
2023-02-04T02:29:59.051Z,5.73
2023-02-04T02:32:27.148Z,6.13
2023-02-04T02:34:55.178Z,6.41
2023-02-04T02:37:23.209Z,6.37
2023-02-04T02:39:51.454Z,6.14
2023-02-04T02:42:20.028Z,5.62
2023-02-04T02:44:50.244Z,5.07
2023-02-04T02:47:20.053Z,5.04
2023-02-04T02:49:50.310Z,5.15
2023-02-04T02:52:18.472Z,5.14
2023-02-04T02:54:46.923Z,5.21
2023-02-04T02:57:23.044Z,5.08
2023-02-04T02:59:51.247Z,4.90
2023-02-04T03:02:23.939Z,4.70
2023-02-04T03:04:57.876Z,4.83
2023-02-04T03:07:28.030Z,5.19
2023-02-04T03:09:55.960Z,5.51
2023-02-04T03:12:23.969Z,5.70
2023-02-04T03:14:52.082Z,5.52
2023-02-04T03:17:20.232Z,5.47
2023-02-04T03:19:48.967Z,5.47
2023-02-04T03:22:16.990Z,5.50
2023-02-04T03:24:45.880Z,5.39
2023-02-04T03:27:15.227Z,5.44
2023-02-04T03:29:44.389Z,5.52
2023-02-04T03:32:12.755Z,5.68
2023-02-04T03:34:40.771Z,5.67
2023-02-04T03:37:09.398Z,5.50
2023-02-04T03:39:37.686Z,5.15
2023-02-04T03:42:05.762Z,5.20
2023-02-04T03:44:33.836Z,5.26
2023-02-04T03:47:01.793Z,5.24
2023-02-04T03:49:29.780Z,5.16
2023-02-04T03:51:57.933Z,5.22
2023-02-04T03:54:25.851Z,5.21
2023-02-04T03:56:53.911Z,5.16
2023-02-04T03:59:22.015Z,5.12
2023-02-04T04:01:50.055Z,4.90
2023-02-04T04:04:18.421Z,4.64
2023-02-04T04:06:46.648Z,4.55
2023-02-04T04:09:15.012Z,4.60
2023-02-04T04:11:43.140Z,4.54
2023-02-04T04:14:11.056Z,4.56
2023-02-04T04:16:39.148Z,4.75
2023-02-04T04:19:07.257Z,4.91
2023-02-04T04:21:35.189Z,4.90
2023-02-04T04:24:03.144Z,4.85
2023-02-04T04:26:31.211Z,4.94
2023-02-04T04:28:59.348Z,5.04
2023-02-04T04:31:27.495Z,5.04
2023-02-04T04:33:55.635Z,5.03
2023-02-04T04:36:23.713Z,5.08
2023-02-04T04:38:51.740Z,4.88
2023-02-04T04:41:19.653Z,4.75
2023-02-04T04:43:47.563Z,4.71
2023-02-04T04:46:15.717Z,4.90
2023-02-04T04:48:43.755Z,5.14
2023-02-04T04:51:11.818Z,4.91
2023-02-04T04:53:39.899Z,4.48
2023-02-04T04:56:08.149Z,4.47
2023-02-04T04:58:36.349Z,4.56
2023-02-04T05:01:04.554Z,4.82
2023-02-04T05:03:32.890Z,4.86
2023-02-04T05:06:00.984Z,4.80
2023-02-04T05:08:28.955Z,4.89
2023-02-04T05:10:57.002Z,5.05
2023-02-04T05:13:25.485Z,5.14
2023-02-04T05:15:53.386Z,5.17
2023-02-04T05:18:21.467Z,4.96
2023-02-04T05:20:49.393Z,4.84
2023-02-04T05:23:17.322Z,4.72
2023-02-04T05:25:45.322Z,4.76
2023-02-04T05:28:13.360Z,4.85
2023-02-04T05:30:41.540Z,4.81
2023-02-04T05:33:09.685Z,4.90
2023-02-04T05:35:37.747Z,5.04
2023-02-04T05:38:05.762Z,5.09
2023-02-04T05:40:33.955Z,5.15
2023-02-04T05:43:02.224Z,5.28
2023-02-04T05:45:30.562Z,5.18
2023-02-04T05:47:58.619Z,5.24
2023-02-04T05:50:26.739Z,5.19
2023-02-04T05:53:09.864Z,4.96
2023-02-04T05:55:37.806Z,4.99
2023-02-04T05:58:05.951Z,4.74
2023-02-04T06:00:34.259Z,4.37
2023-02-04T06:03:02.819Z,4.21
2023-02-04T06:05:31.135Z,4.33
2023-02-04T06:07:59.261Z,4.48
2023-02-04T06:10:27.415Z,4.40
2023-02-04T06:12:55.299Z,4.47
2023-02-04T06:15:23.458Z,4.41
2023-02-04T06:17:52.636Z,4.26
2023-02-04T06:20:20.728Z,4.24
2023-02-04T06:22:51.814Z,4.44
2023-02-04T06:25:23.483Z,4.61
2023-02-04T06:27:51.807Z,4.74
2023-02-04T06:30:19.907Z,4.89
2023-02-04T06:32:48.043Z,4.92
2023-02-04T06:35:16.794Z,4.98
2023-02-04T06:37:44.862Z,4.97
2023-02-04T06:40:13.261Z,4.87
2023-02-04T06:42:41.402Z,4.86
2023-02-04T06:45:09.630Z,4.89
2023-02-04T06:47:37.576Z,4.99
2023-02-04T06:50:06.002Z,5.09
2023-02-04T06:52:34.033Z,5.30
2023-02-04T06:55:02.282Z,5.53
2023-02-04T06:57:30.365Z,5.59
2023-02-04T06:59:58.315Z,5.77
2023-02-04T07:02:26.429Z,5.80
2023-02-04T07:04:54.585Z,5.81
2023-02-04T07:07:22.516Z,5.74
2023-02-04T07:09:50.559Z,5.34
2023-02-04T07:12:19.066Z,4.98
2023-02-04T07:14:47.049Z,5.21
2023-02-04T07:17:15.317Z,5.19
2023-02-04T07:19:43.584Z,5.47
2023-02-04T07:22:11.522Z,5.79
2023-02-04T07:24:39.647Z,6.17
2023-02-04T07:27:07.678Z,6.52
2023-02-04T07:29:35.743Z,6.65
2023-02-04T07:32:03.963Z,6.85
2023-02-04T07:34:31.958Z,6.93
2023-02-04T07:37:00.016Z,6.83
2023-02-04T07:39:28.103Z,7.01
2023-02-04T07:41:56.214Z,7.21
2023-02-04T07:44:25.047Z,7.53
2023-02-04T07:46:52.954Z,7.65
2023-02-04T07:49:20.891Z,7.69
2023-02-04T07:51:48.847Z,7.48
2023-02-04T07:54:20.067Z,7.36
2023-02-04T07:56:48.104Z,7.40
2023-02-04T07:59:16.175Z,7.44
2023-02-04T08:01:44.150Z,7.66
2023-02-04T08:04:12.230Z,7.89
2023-02-04T08:06:40.136Z,8.07
2023-02-04T08:09:08.149Z,7.94
2023-02-04T08:11:36.150Z,7.82
2023-02-04T08:14:04.182Z,7.83
2023-02-04T08:16:32.130Z,7.89
2023-02-04T08:19:00.109Z,7.85
2023-02-04T08:21:28.084Z,7.80
2023-02-04T08:23:56.048Z,7.82
2023-02-04T08:26:24.326Z,7.90
2023-02-04T08:28:52.404Z,8.02
2023-02-04T08:31:20.735Z,8.33
2023-02-04T08:33:48.848Z,8.63
2023-02-04T08:36:17.119Z,8.77
2023-02-04T08:38:45.203Z,8.74
2023-02-04T08:41:13.319Z,8.85
2023-02-04T08:43:41.569Z,8.99
2023-02-04T08:46:09.739Z,9.03
2023-02-04T08:48:38.227Z,9.11
2023-02-04T08:51:06.581Z,9.17
2023-02-04T08:53:34.721Z,9.36
2023-02-04T08:56:02.730Z,9.37
2023-02-04T08:58:30.818Z,9.54
2023-02-04T09:00:58.982Z,9.73
2023-02-04T09:03:27.168Z,9.77
2023-02-04T09:05:55.120Z,9.95
2023-02-04T09:08:23.192Z,9.97
2023-02-04T09:10:51.274Z,9.87
2023-02-04T09:13:19.245Z,9.92
2023-02-04T09:15:47.407Z,9.91
2023-02-04T09:18:17.962Z,9.75
2023-02-04T09:20:46.622Z,9.53
2023-02-04T09:23:15.293Z,9.37
2023-02-04T09:25:44.365Z,9.28
2023-02-04T09:28:13.186Z,9.21
2023-02-04T09:30:42.574Z,9.18
2023-02-04T09:33:11.814Z,9.18
2023-02-04T09:35:39.966Z,9.27
2023-02-04T09:38:08.235Z,9.38
2023-02-04T09:40:38.361Z,9.30
2023-02-04T09:43:07.338Z,9.26
2023-02-04T09:45:36.202Z,9.37
2023-02-04T09:48:05.551Z,9.50
2023-02-04T09:50:34.338Z,9.65
2023-02-04T09:53:04.731Z,9.70
2023-02-04T09:55:38.721Z,9.67
2023-02-04T09:58:13.191Z,9.61
2023-02-04T10:00:41.357Z,9.57
2023-02-04T10:03:15.091Z,9.52
2023-02-04T10:05:43.516Z,9.65
2023-02-04T10:08:14.563Z,9.85
2023-02-04T10:10:43.217Z,10.06
2023-02-04T10:13:16.527Z,10.08
2023-02-04T10:15:45.104Z,10.17
2023-02-04T10:18:17.937Z,10.38
2023-02-04T10:20:46.270Z,10.53
2023-02-04T10:23:14.546Z,10.55
2023-02-04T10:25:42.519Z,10.54
2023-02-04T10:28:10.852Z,10.61
2023-02-04T10:30:41.280Z,10.67
2023-02-04T10:33:22.317Z,10.68
2023-02-04T10:35:52.003Z,10.55
2023-02-04T10:38:20.794Z,10.59
2023-02-04T10:40:49.475Z,10.61
2023-02-04T10:43:18.526Z,10.44
2023-02-04T10:45:47.409Z,10.22
2023-02-04T10:48:19.732Z,10.14
2023-02-04T10:50:48.517Z,10.25
2023-02-04T10:53:36.655Z,10.27
2023-02-04T10:56:05.377Z,10.10
2023-02-04T10:58:33.617Z,9.95
2023-02-04T11:01:02.241Z,9.77
2023-02-04T11:03:31.152Z,9.71
2023-02-04T11:06:00.808Z,9.73
2023-02-04T11:08:33.685Z,9.70
2023-02-04T11:11:06.605Z,9.70
2023-02-04T11:13:40.729Z,9.65
2023-02-04T11:16:08.656Z,9.60
2023-02-04T11:18:48.804Z,9.56
2023-02-04T11:21:29.266Z,9.56
2023-02-04T11:24:04.906Z,9.45
2023-02-04T11:26:36.150Z,9.42
2023-02-04T11:29:04.076Z,9.35
2023-02-04T11:31:35.182Z,9.37
2023-02-04T11:34:15.275Z,9.35
2023-02-04T11:36:59.912Z,9.14
2023-02-04T11:39:33.952Z,9.11
2023-02-04T11:42:02.158Z,9.13
2023-02-04T11:44:30.277Z,9.17
2023-02-04T11:46:59.574Z,9.13
2023-02-04T11:49:27.640Z,9.04
2023-02-04T11:52:08.999Z,8.90
2023-02-04T11:54:37.449Z,8.83
2023-02-04T11:57:05.732Z,8.66
2023-02-04T11:59:33.799Z,8.47
2023-02-04T12:02:06.354Z,8.26
2023-02-04T12:04:34.449Z,8.11
2023-02-04T12:07:04.978Z,8.11
2023-02-04T12:09:33.039Z,8.06
2023-02-04T12:12:02.137Z,7.94
2023-02-04T12:14:34.622Z,7.82
2023-02-04T12:17:15.234Z,7.82
2023-02-04T12:19:43.456Z,8.01
2023-02-04T12:22:11.499Z,8.12
2023-02-04T12:24:39.389Z,8.30
2023-02-04T12:27:07.560Z,8.37
2023-02-04T12:29:35.518Z,8.42
2023-02-04T12:32:03.668Z,8.71
2023-02-04T12:34:31.867Z,9.06
2023-02-04T12:36:59.911Z,9.15
2023-02-04T12:39:28.831Z,9.15
2023-02-04T12:41:57.003Z,8.54
2023-02-04T12:44:25.072Z,8.38
2023-02-04T12:46:54.446Z,8.43
2023-02-04T12:49:24.493Z,8.53
2023-02-04T12:51:52.771Z,8.70
2023-02-04T12:54:20.758Z,8.82
2023-02-04T12:56:49.534Z,8.75
2023-02-04T12:59:17.580Z,8.64
2023-02-04T13:01:45.623Z,8.47
2023-02-04T13:04:14.456Z,8.02
2023-02-04T13:06:42.526Z,8.07
2023-02-04T13:09:10.595Z,8.21
2023-02-04T13:11:38.660Z,8.17
2023-02-04T13:14:06.740Z,8.14
2023-02-04T13:16:34.895Z,7.83
2023-02-04T13:19:03.444Z,7.89
2023-02-04T13:21:31.553Z,7.83
2023-02-04T13:24:00.039Z,7.72
2023-02-04T13:26:28.202Z,7.15
2023-02-04T13:28:56.492Z,7.18
2023-02-04T13:31:24.708Z,7.17
2023-02-04T13:33:52.784Z,6.70
2023-02-04T13:36:20.725Z,6.46
2023-02-04T13:38:48.759Z,6.21
2023-02-04T13:41:16.906Z,6.03
2023-02-04T13:43:44.848Z,5.90
2023-02-04T13:46:12.996Z,5.48
2023-02-04T13:48:41.120Z,5.17
2023-02-04T13:51:09.133Z,4.91
2023-02-04T13:53:37.081Z,4.70
2023-02-04T13:56:05.162Z,4.84
2023-02-04T13:58:33.440Z,4.97
2023-02-04T14:01:01.630Z,5.03
2023-02-04T14:03:30.188Z,5.07
2023-02-04T14:05:58.277Z,4.97
2023-02-04T14:08:26.386Z,4.65
2023-02-04T14:10:54.375Z,4.60
2023-02-04T14:13:22.473Z,4.40
2023-02-04T14:15:50.388Z,4.19
2023-02-04T14:18:18.406Z,4.35
2023-02-04T14:20:46.597Z,4.45
2023-02-04T14:23:14.653Z,4.67
2023-02-04T14:25:42.914Z,4.83
2023-02-04T14:28:11.160Z,4.79
2023-02-04T14:30:39.264Z,4.92
2023-02-04T14:33:09.113Z,5.02
2023-02-04T14:35:37.862Z,5.11
2023-02-04T14:38:06.074Z,5.28
2023-02-04T14:40:34.296Z,5.35
2023-02-04T14:43:02.493Z,5.35
2023-02-04T14:45:30.759Z,5.14
2023-02-04T14:48:00.582Z,4.95
2023-02-04T14:50:30.553Z,4.84
2023-02-04T14:52:58.866Z,4.58
2023-02-04T14:55:27.562Z,4.32
2023-02-04T14:57:55.502Z,4.18
2023-02-04T15:00:23.616Z,4.03
2023-02-04T15:02:51.959Z,4.04
2023-02-04T15:05:20.049Z,4.05
2023-02-04T15:07:48.105Z,3.95
2023-02-04T15:10:16.288Z,3.61
2023-02-04T15:12:44.425Z,3.33
2023-02-04T15:15:12.530Z,3.21
2023-02-04T15:17:40.542Z,3.28
2023-02-04T15:20:08.979Z,3.19
2023-02-04T15:22:36.920Z,2.98
2023-02-04T15:25:05.241Z,2.97
2023-02-04T15:27:33.276Z,3.00
2023-02-04T15:30:01.237Z,2.90
2023-02-04T15:32:29.137Z,2.53
2023-02-04T15:34:57.061Z,2.29
2023-02-04T15:37:25.347Z,2.34
2023-02-04T15:39:55.773Z,2.22
2023-02-04T15:42:25.028Z,2.06
2023-02-04T15:44:53.561Z,1.95
2023-02-04T15:47:21.726Z,1.77
2023-02-04T15:49:49.666Z,1.65
2023-02-04T15:52:24.801Z,1.67
2023-02-04T15:54:53.564Z,1.75
2023-02-04T15:57:21.794Z,1.75
2023-02-04T15:59:50.193Z,1.86
2023-02-04T16:02:18.611Z,1.84
2023-02-04T16:04:48.152Z,1.86
2023-02-04T16:07:16.432Z,1.83
2023-02-04T16:09:44.606Z,1.79
2023-02-04T16:12:12.523Z,1.86
2023-02-04T16:14:40.542Z,1.80
2023-02-04T16:17:09.752Z,1.71
2023-02-04T16:19:38.116Z,1.70
2023-02-04T16:22:06.598Z,1.65
2023-02-04T16:24:34.836Z,1.64
2023-02-04T16:27:02.943Z,1.70
2023-02-04T16:29:31.215Z,1.62
2023-02-04T16:31:59.236Z,1.60
2023-02-04T16:34:28.412Z,1.49
2023-02-04T16:36:56.544Z,1.54
2023-02-04T16:39:25.384Z,1.65
2023-02-04T16:41:53.713Z,1.70
2023-02-04T16:44:21.674Z,1.49
2023-02-04T16:46:50.934Z,1.29
2023-02-04T16:49:20.349Z,1.31
2023-02-04T16:51:48.364Z,1.23
2023-02-04T16:54:16.438Z,1.28
2023-02-04T16:56:44.485Z,1.44
2023-02-04T16:59:12.466Z,1.44
2023-02-04T17:01:40.638Z,1.41
2023-02-04T17:04:08.694Z,1.37
2023-02-04T17:06:37.199Z,1.58
2023-02-04T17:09:05.364Z,1.81
2023-02-04T17:11:33.421Z,1.88
2023-02-04T17:14:06.764Z,2.18
2023-02-04T17:16:35.089Z,2.36
2023-02-04T17:19:03.666Z,2.44
2023-02-04T17:21:32.045Z,2.55
2023-02-04T17:24:06.470Z,2.66
2023-02-04T17:26:38.261Z,2.79
2023-02-04T17:29:07.879Z,2.53
2023-02-04T17:31:36.480Z,2.38
2023-02-04T17:34:05.200Z,2.57
2023-02-04T17:36:33.492Z,2.75
2023-02-04T17:39:01.801Z,2.74
2023-02-04T17:41:30.802Z,2.70
2023-02-04T17:43:59.181Z,2.78
2023-02-04T17:46:31.218Z,2.91
2023-02-04T17:48:59.598Z,3.05
2023-02-04T17:51:27.610Z,2.82
2023-02-04T17:53:55.802Z,2.77
2023-02-04T17:56:25.001Z,2.56
2023-02-04T17:58:55.037Z,2.66
2023-02-04T18:01:25.285Z,2.65
2023-02-04T18:03:53.515Z,2.55
2023-02-04T18:06:29.227Z,2.43
2023-02-04T18:09:02.345Z,2.31
2023-02-04T18:11:33.140Z,2.26
2023-02-04T18:14:05.658Z,2.29
2023-02-04T18:16:34.677Z,2.29
2023-02-04T18:19:16.824Z,2.35
2023-02-04T18:21:45.607Z,2.38
2023-02-04T18:24:18.868Z,2.51
2023-02-04T18:26:46.995Z,2.53
2023-02-04T18:29:35.076Z,2.40
2023-02-04T18:32:06.485Z,2.41
2023-02-04T18:34:38.768Z,2.49
2023-02-04T18:37:25.438Z,2.47
2023-02-04T18:39:57.759Z,2.51
2023-02-04T18:42:27.202Z,2.35
2023-02-04T18:44:56.977Z,2.27
2023-02-04T18:47:29.670Z,2.35
2023-02-04T18:50:01.782Z,2.42
2023-02-04T18:52:35.771Z,2.36
2023-02-04T18:55:17.985Z,2.22
2023-02-04T18:57:45.935Z,2.22
2023-02-04T19:00:22.535Z,2.07
2023-02-04T19:02:50.505Z,1.94
2023-02-04T19:05:42.631Z,1.85
2023-02-04T19:08:10.537Z,1.81
2023-02-04T19:10:40.314Z,1.49
2023-02-04T19:13:22.321Z,1.23
2023-02-04T19:16:04.927Z,0.99
2023-02-04T19:18:37.545Z,0.94
2023-02-04T19:21:22.489Z,0.89
2023-02-04T19:23:52.194Z,0.57
2023-02-04T19:26:34.480Z,0.40
2023-02-04T19:29:21.283Z,0.12
2023-02-04T19:31:49.996Z,0.07
2023-02-04T19:34:23.563Z,0.25
2023-02-04T19:36:53.607Z,0.35
2023-02-04T19:39:40.461Z,0.59
2023-02-04T19:42:28.833Z,0.66
2023-02-04T19:44:59.574Z,0.53
2023-02-04T19:47:37.166Z,0.36
2023-02-04T19:50:25.845Z,0.26
2023-02-04T19:52:59.875Z,0.31
2023-02-04T19:55:27.798Z,0.16
2023-02-04T19:58:14.613Z,0.28
2023-02-04T20:00:46.758Z,0.68
2023-02-04T20:03:25.722Z,0.82
2023-02-04T20:06:12.151Z,1.04
2023-02-04T20:08:40.116Z,1.09
2023-02-04T20:11:34.044Z,1.31
2023-02-04T20:14:04.568Z,1.37
2023-02-04T20:16:38.315Z,1.59
2023-02-04T20:19:24.340Z,1.61
2023-02-04T20:21:55.065Z,1.50
2023-02-04T20:24:23.222Z,1.54
2023-02-04T20:26:52.793Z,1.46
2023-02-04T20:29:23.583Z,1.41
2023-02-04T20:31:51.589Z,1.57
2023-02-04T20:34:24.045Z,1.41
2023-02-04T20:36:52.426Z,1.50
2023-02-04T20:39:29.600Z,1.69
2023-02-04T20:42:36.106Z,1.71
2023-02-04T20:45:10.736Z,1.78
2023-02-04T20:47:38.748Z,1.87
2023-02-04T20:50:26.632Z,1.87
2023-02-04T20:53:07.682Z,1.79
2023-02-04T20:55:36.007Z,1.86
2023-02-04T20:58:18.570Z,1.52
2023-02-04T21:00:48.943Z,1.41
2023-02-04T21:03:22.654Z,1.43
2023-02-04T21:05:52.637Z,1.59
2023-02-04T21:08:20.675Z,1.59
2023-02-04T21:10:48.655Z,1.60
2023-02-04T21:13:16.834Z,1.63
2023-02-04T21:15:45.279Z,1.63
2023-02-04T21:18:13.480Z,1.69
2023-02-04T21:20:41.493Z,1.72
2023-02-04T21:23:09.486Z,1.76
2023-02-04T21:25:37.991Z,1.90
2023-02-04T21:28:06.596Z,1.83
2023-02-04T21:30:34.754Z,1.89
2023-02-04T21:33:02.923Z,1.77
2023-02-04T21:35:31.309Z,1.65
2023-02-04T21:38:00.012Z,1.79
2023-02-04T21:40:28.247Z,1.70
2023-02-04T21:42:56.316Z,1.63
2023-02-04T21:45:24.903Z,1.63
2023-02-04T21:47:53.296Z,1.48
2023-02-04T21:50:22.273Z,1.46
2023-02-04T21:52:50.502Z,1.27
2023-02-04T21:55:21.513Z,1.07
2023-02-04T21:57:50.256Z,0.73
2023-02-04T22:00:20.394Z,0.49
2023-02-04T22:02:48.619Z,0.37
2023-02-04T22:05:18.551Z,0.42
2023-02-04T22:07:47.058Z,0.32
2023-02-04T22:10:17.375Z,0.21
2023-02-04T22:12:45.726Z,0.27
2023-02-04T22:15:14.872Z,0.36
2023-02-04T22:17:43.026Z,0.56
2023-02-04T22:20:12.370Z,0.61
2023-02-04T22:22:40.599Z,0.64
2023-02-04T22:25:08.635Z,0.64
2023-02-04T22:27:37.040Z,0.64
2023-02-04T22:30:06.317Z,0.64
2023-02-04T22:32:34.700Z,0.46
2023-02-04T22:35:02.712Z,0.48
2023-02-04T22:37:30.766Z,0.60
2023-02-04T22:39:58.852Z,0.69
2023-02-04T22:42:26.800Z,0.70
2023-02-04T22:44:55.001Z,0.65
2023-02-04T22:47:22.906Z,0.68
2023-02-04T22:49:51.120Z,0.66
2023-02-04T22:52:19.125Z,0.63
2023-02-04T22:54:47.403Z,0.87
2023-02-04T22:57:15.430Z,0.98
2023-02-04T22:59:43.411Z,0.88
2023-02-04T23:02:11.547Z,0.91
2023-02-04T23:04:39.575Z,0.66
2023-02-04T23:07:08.625Z,0.58
2023-02-04T23:09:36.960Z,0.44
2023-02-04T23:12:15.144Z,0.32
2023-02-04T23:14:44.787Z,0.26
2023-02-04T23:17:13.229Z,-0.04
2023-02-04T23:19:41.166Z,-0.26
2023-02-04T23:22:10.139Z,-0.40
2023-02-04T23:24:38.520Z,-0.46
2023-02-04T23:27:06.591Z,-0.48
2023-02-04T23:29:37.503Z,-0.42
2023-02-04T23:32:09.382Z,-0.30
2023-02-04T23:34:37.667Z,-0.31
2023-02-04T23:37:05.890Z,-0.21
2023-02-04T23:39:34.015Z,0.00
2023-02-04T23:42:02.257Z,0.14
2023-02-04T23:44:30.256Z,0.15
2023-02-04T23:46:58.409Z,-0.12
2023-02-04T23:49:26.331Z,-0.18
2023-02-04T23:51:54.467Z,-0.12
2023-02-04T23:54:23.880Z,0.19
2023-02-04T23:56:52.560Z,0.31
2023-02-04T23:59:20.623Z,0.38
